Terminal Aerodrome Forecast
Issued by NWS

Home | Current Version | Previous Version | Text Only | Print | Product List | Glossary On
Versions: 1 2 3 4 5 6 7 8 9 10 11 12 13 14 15 16 17
540
FTUS41 KAKQ 121140
TAFPHF
TAF
KPHF 121140Z 1212/1312 20010KT P6SM SCT200
     FM121700 26013G20KT P6SM SCT080 BKN200
     FM130000 30017G26KT P6SM BKN045
     FM130100 30017G26KT P6SM SCT060=

USA.gov is the U.S. government's official web portal to all federal, state and local government web resources and services.